createdAt,value
2022-10-13T00:00:48.194Z,13.90
2022-10-13T00:03:16.899Z,13.76
2022-10-13T00:05:47.054Z,13.68
2022-10-13T00:08:18.857Z,12.87
2022-10-13T00:10:47.928Z,13.02
2022-10-13T00:13:16.290Z,13.07
2022-10-13T00:15:47.385Z,13.22
2022-10-13T00:18:15.722Z,12.54
2022-10-13T00:20:45.176Z,13.21
2022-10-13T00:23:13.908Z,13.35
2022-10-13T00:25:43.378Z,13.46
2022-10-13T00:28:11.445Z,12.92
2022-10-13T00:30:40.326Z,11.83
2022-10-13T00:33:10.747Z,12.38
2022-10-13T00:35:42.989Z,12.62
2022-10-13T00:38:16.622Z,13.48
2022-10-13T00:40:46.157Z,13.60
2022-10-13T00:43:22.340Z,13.69
2022-10-13T00:45:50.845Z,13.73
2022-10-13T00:48:23.625Z,13.31
2022-10-13T00:50:52.484Z,12.64
2022-10-13T00:53:24.110Z,11.65
2022-10-13T00:55:53.476Z,11.73
2022-10-13T00:58:26.475Z,12.36
2022-10-13T01:00:54.764Z,12.73
2022-10-13T01:03:24.657Z,13.11
2022-10-13T01:05:54.707Z,13.12
2022-10-13T01:08:26.876Z,13.16
2022-10-13T01:11:10.907Z,13.13
2022-10-13T01:13:43.476Z,12.64
2022-10-13T01:16:16.777Z,12.65
2022-10-13T01:18:53.675Z,12.69
2022-10-13T01:21:29.290Z,12.84
2022-10-13T01:24:26.692Z,13.25
2022-10-13T01:27:16.307Z,13.52
2022-10-13T01:30:06.922Z,13.48
2022-10-13T01:33:02.632Z,13.56
2022-10-13T01:35:41.112Z,13.70
2022-10-13T01:38:16.387Z,13.76
2022-10-13T01:40:49.880Z,13.81
2022-10-13T01:43:24.539Z,13.85
2022-10-13T01:45:59.842Z,13.85
2022-10-13T01:48:28.855Z,13.88
2022-10-13T01:50:59.697Z,13.83
2022-10-13T01:53:28.905Z,13.73
2022-10-13T01:55:58.614Z,13.72
2022-10-13T01:58:29.884Z,13.49
2022-10-13T02:01:11.041Z,13.40
2022-10-13T02:03:53.178Z,13.19
2022-10-13T02:06:25.970Z,13.25
2022-10-13T02:09:02.540Z,13.03
2022-10-13T02:11:30.277Z,12.96
2022-10-13T02:14:03.075Z,13.21
2022-10-13T02:16:35.952Z,13.44
2022-10-13T02:19:05.716Z,13.45
2022-10-13T02:21:35.186Z,13.43
2022-10-13T02:24:03.615Z,13.38
2022-10-13T02:26:33.274Z,13.18
2022-10-13T02:29:11.196Z,13.22
2022-10-13T02:31:41.325Z,13.59
2022-10-13T02:34:09.213Z,13.62
2022-10-13T02:36:38.996Z,13.53
2022-10-13T02:39:07.710Z,13.51
2022-10-13T02:41:37.696Z,13.63
2022-10-13T02:44:06.012Z,13.67
2022-10-13T02:46:43.020Z,13.86
2022-10-13T02:49:10.882Z,13.90
2022-10-13T02:51:40.284Z,14.01
2022-10-13T02:54:08.717Z,13.83
2022-10-13T02:56:36.440Z,13.75
2022-10-13T03:00:51.052Z,13.88
2022-10-13T03:03:18.879Z,14.05
2022-10-13T03:05:48.133Z,14.01
2022-10-13T03:08:17.218Z,13.97
2022-10-13T03:10:46.176Z,14.10
2022-10-13T03:13:13.952Z,14.13
2022-10-13T03:15:43.818Z,14.13
2022-10-13T03:18:12.916Z,14.26
2022-10-13T03:20:40.751Z,14.32
2022-10-13T03:23:08.716Z,14.38
2022-10-13T03:25:37.190Z,14.45
2022-10-13T03:28:05.035Z,14.49
2022-10-13T03:30:32.735Z,14.55
2022-10-13T03:33:00.451Z,14.58
2022-10-13T03:35:29.520Z,14.63
2022-10-13T03:37:59.339Z,14.66
2022-10-13T03:40:31.486Z,14.68
2022-10-13T03:42:59.234Z,14.44
2022-10-13T03:45:31.332Z,14.44
2022-10-13T03:47:59.202Z,14.50
2022-10-13T03:50:27.086Z,14.57
2022-10-13T03:52:56.975Z,14.60
2022-10-13T03:55:24.698Z,14.59
2022-10-13T03:57:52.442Z,14.59
2022-10-13T04:00:22.425Z,14.61
2022-10-13T04:02:51.082Z,14.71
2022-10-13T04:05:18.787Z,14.74
2022-10-13T04:07:46.553Z,14.51
2022-10-13T04:10:20.885Z,14.76
2022-10-13T04:12:50.392Z,14.95
2022-10-13T04:15:18.308Z,14.89
2022-10-13T04:17:46.018Z,14.87
2022-10-13T04:20:16.060Z,14.96
2022-10-13T04:22:43.760Z,14.86
2022-10-13T04:25:11.647Z,14.89
2022-10-13T04:27:40.765Z,15.01
2022-10-13T04:30:13.342Z,14.85
2022-10-13T04:32:41.649Z,14.81
2022-10-13T04:35:12.133Z,14.82
2022-10-13T04:37:44.828Z,14.87
2022-10-13T04:40:13.537Z,14.90
2022-10-13T04:42:42.849Z,14.91
2022-10-13T04:45:11.156Z,14.72
2022-10-13T04:47:41.210Z,14.86
2022-10-13T04:50:10.189Z,14.84
2022-10-13T04:52:38.162Z,14.86
2022-10-13T04:55:07.018Z,14.85
2022-10-13T04:57:35.011Z,14.69
2022-10-13T05:00:07.216Z,14.60
2022-10-13T05:02:36.277Z,14.70
2022-10-13T05:05:04.883Z,14.71
2022-10-13T05:07:33.412Z,14.70
2022-10-13T05:10:01.388Z,14.69
2022-10-13T05:12:29.680Z,14.57
2022-10-13T05:14:58.880Z,14.60
2022-10-13T05:17:34.869Z,14.62
2022-10-13T05:20:07.729Z,14.71
2022-10-13T05:22:35.901Z,14.65
2022-10-13T05:25:04.182Z,14.75
2022-10-13T05:27:32.122Z,14.78
2022-10-13T05:30:03.803Z,14.72
2022-10-13T05:32:32.953Z,14.16
2022-10-13T05:35:00.730Z,14.55
2022-10-13T05:37:28.488Z,14.66
2022-10-13T05:39:56.271Z,14.46
2022-10-13T05:42:24.041Z,14.68
2022-10-13T05:44:52.129Z,14.72
2022-10-13T05:47:19.858Z,14.76
2022-10-13T05:49:48.926Z,14.69
2022-10-13T05:52:19.179Z,14.67
2022-10-13T05:54:49.909Z,14.67
2022-10-13T05:57:22.159Z,14.36
2022-10-13T05:59:53.286Z,14.67
2022-10-13T06:02:25.891Z,14.83
2022-10-13T06:04:57.525Z,14.87
2022-10-13T06:07:25.609Z,14.68
2022-10-13T06:09:53.475Z,14.81
2022-10-13T06:12:21.521Z,14.91
2022-10-13T06:14:49.347Z,14.96
2022-10-13T06:17:17.279Z,14.92
2022-10-13T06:19:46.232Z,15.03
2022-10-13T06:22:15.583Z,15.01
2022-10-13T06:24:43.303Z,15.07
2022-10-13T06:27:13.536Z,14.65
2022-10-13T06:29:41.281Z,15.01
2022-10-13T06:32:09.037Z,15.16
2022-10-13T06:34:36.789Z,14.85
2022-10-13T06:37:04.629Z,15.13
2022-10-13T06:39:33.835Z,15.27
2022-10-13T06:42:04.706Z,15.42
2022-10-13T06:44:37.156Z,15.47
2022-10-13T06:47:05.689Z,15.74
2022-10-13T06:49:33.454Z,15.72
2022-10-13T06:52:01.243Z,15.75
2022-10-13T06:54:28.947Z,15.89
2022-10-13T06:56:58.043Z,15.86
2022-10-13T06:59:26.405Z,15.88
2022-10-13T07:01:54.528Z,16.01
2022-10-13T07:04:22.924Z,15.85
2022-10-13T07:06:50.871Z,15.79
2022-10-13T07:09:20.014Z,15.70
2022-10-13T07:11:48.096Z,15.77
2022-10-13T07:14:19.297Z,15.87
2022-10-13T07:16:49.109Z,15.65
2022-10-13T07:19:16.787Z,15.83
2022-10-13T07:21:44.546Z,15.84
2022-10-13T07:24:13.058Z,15.85
2022-10-13T07:26:40.851Z,16.12
2022-10-13T07:29:08.918Z,15.89
2022-10-13T07:31:38.006Z,16.10
2022-10-13T07:34:06.659Z,16.11
2022-10-13T07:36:35.430Z,16.10
2022-10-13T07:39:03.872Z,15.90
2022-10-13T07:41:32.195Z,15.54
2022-10-13T07:43:59.921Z,15.92
2022-10-13T07:46:27.840Z,16.34
2022-10-13T07:48:57.070Z,16.67
2022-10-13T07:51:24.827Z,16.70
2022-10-13T07:53:52.515Z,16.83
2022-10-13T07:56:20.207Z,17.04
2022-10-13T07:58:50.049Z,17.15
2022-10-13T08:01:19.865Z,17.26
2022-10-13T08:03:50.230Z,17.57
2022-10-13T08:06:20.625Z,17.59
2022-10-13T08:08:48.554Z,17.48
2022-10-13T08:11:17.888Z,17.74
2022-10-13T08:13:48.679Z,17.71
2022-10-13T08:16:21.675Z,18.05
2022-10-13T08:18:51.574Z,17.80
2022-10-13T08:21:45.808Z,17.35
2022-10-13T08:24:14.354Z,17.31
2022-10-13T08:26:43.825Z,17.61
2022-10-13T08:29:28.181Z,17.48
2022-10-13T08:31:56.776Z,18.04
2022-10-13T08:34:25.788Z,18.54
2022-10-13T08:36:56.595Z,18.87
2022-10-13T08:39:25.692Z,18.79
2022-10-13T08:41:54.708Z,18.78
2022-10-13T08:47:25.402Z,19.05
2022-10-13T08:50:00.250Z,19.09
2022-10-13T08:52:44.483Z,18.75
2022-10-13T08:55:21.145Z,19.02
2022-10-13T08:57:48.997Z,18.91
2022-10-13T09:00:19.011Z,18.97
2022-10-13T09:02:50.840Z,18.90
2022-10-13T09:05:32.418Z,19.03
2022-10-13T09:08:12.330Z,18.82
2022-10-13T09:10:47.958Z,19.09
2022-10-13T09:13:19.568Z,19.46
2022-10-13T09:15:50.351Z,19.63
2022-10-13T09:18:18.324Z,19.42
2022-10-13T09:20:46.145Z,19.55
2022-10-13T09:23:21.499Z,19.40
2022-10-13T09:25:51.185Z,19.57
2022-10-13T09:28:23.861Z,19.54
2022-10-13T09:31:02.847Z,19.70
2022-10-13T09:33:30.577Z,19.78
2022-10-13T09:36:14.214Z,19.48
2022-10-13T09:38:45.621Z,19.25
2022-10-13T09:41:17.487Z,19.64
2022-10-13T09:43:59.955Z,19.08
2022-10-13T09:46:30.970Z,19.16
2022-10-13T09:49:03.112Z,19.21
2022-10-13T09:51:38.709Z,18.74
2022-10-13T09:54:29.476Z,19.17
2022-10-13T09:57:02.227Z,18.95
2022-10-13T09:59:35.825Z,18.98
2022-10-13T10:02:21.345Z,19.37
2022-10-13T10:04:54.264Z,19.22
2022-10-13T10:07:29.167Z,19.02
2022-10-13T10:10:04.877Z,18.86
2022-10-13T10:12:38.277Z,19.05
2022-10-13T10:15:21.247Z,19.39
2022-10-13T10:17:56.092Z,19.06
2022-10-13T10:20:46.537Z,19.23
2022-10-13T10:23:20.202Z,19.41
2022-10-13T10:25:52.882Z,19.48
2022-10-13T10:28:40.433Z,19.22
2022-10-13T10:31:19.662Z,19.24
2022-10-13T10:33:56.743Z,19.26
2022-10-13T10:36:35.629Z,18.86
2022-10-13T10:39:13.856Z,19.31
2022-10-13T10:41:50.649Z,19.71
2022-10-13T10:44:25.969Z,19.73
2022-10-13T10:46:59.803Z,19.74
2022-10-13T10:49:32.043Z,20.03
2022-10-13T10:52:02.155Z,19.78
2022-10-13T10:54:49.238Z,19.96
2022-10-13T10:57:25.531Z,20.00
2022-10-13T11:00:01.748Z,20.35
2022-10-13T11:02:45.050Z,20.28
2022-10-13T11:05:13.444Z,19.88
2022-10-13T11:07:59.603Z,20.06
2022-10-13T11:10:28.428Z,20.27
2022-10-13T11:13:25.875Z,20.03
2022-10-13T11:15:55.511Z,20.02
2022-10-13T11:18:56.496Z,20.68
2022-10-13T11:22:06.847Z,20.40
2022-10-13T11:24:59.722Z,20.36
2022-10-13T11:27:42.530Z,20.42
2022-10-13T11:30:57.380Z,19.87
2022-10-13T11:33:36.591Z,20.55
2022-10-13T11:36:36.539Z,20.53
2022-10-13T11:39:20.808Z,20.36
2022-10-13T11:41:59.452Z,20.05
2022-10-13T11:44:36.087Z,19.98
2022-10-13T11:47:16.036Z,20.47
2022-10-13T11:49:58.933Z,20.71
2022-10-13T11:52:41.028Z,20.41
2022-10-13T11:55:15.863Z,20.24
2022-10-13T11:57:46.234Z,20.28
2022-10-13T12:00:18.418Z,20.40
2022-10-13T12:02:52.168Z,20.26
2022-10-13T12:05:24.361Z,20.33
2022-10-13T12:07:58.544Z,20.15
2022-10-13T12:10:33.189Z,20.41
2022-10-13T12:13:05.985Z,20.81
2022-10-13T12:15:36.322Z,21.16
2022-10-13T12:18:19.880Z,21.12
2022-10-13T12:20:54.666Z,21.18
2022-10-13T12:23:22.888Z,19.62
2022-10-13T12:25:57.173Z,20.57
2022-10-13T12:28:28.390Z,19.45
2022-10-13T12:30:58.742Z,21.23
2022-10-13T12:33:32.548Z,21.05
2022-10-13T12:36:13.941Z,21.28
2022-10-13T12:38:46.777Z,21.88
2022-10-13T12:41:19.208Z,21.36
2022-10-13T12:43:49.632Z,21.45
2022-10-13T12:46:36.305Z,22.20
2022-10-13T12:49:09.187Z,22.40
2022-10-13T12:51:39.596Z,21.62
2022-10-13T12:54:09.461Z,22.06
2022-10-13T12:56:37.265Z,22.03
2022-10-13T12:59:06.369Z,22.15
2022-10-13T13:01:36.060Z,22.29
2022-10-13T13:04:17.773Z,21.66
2022-10-13T13:06:57.267Z,21.28
2022-10-13T13:09:28.177Z,22.20
2022-10-13T13:12:08.083Z,22.13
2022-10-13T13:14:39.564Z,22.13
2022-10-13T13:17:12.980Z,21.98
2022-10-13T13:19:42.587Z,21.98
2022-10-13T13:22:12.816Z,21.84
2022-10-13T13:24:40.850Z,21.79
2022-10-13T13:27:24.227Z,21.54
2022-10-13T13:29:54.599Z,21.74
2022-10-13T13:32:26.416Z,21.66
2022-10-13T13:34:54.101Z,21.31
2022-10-13T13:37:28.457Z,21.51
2022-10-13T13:39:56.416Z,22.05
2022-10-13T13:42:24.232Z,21.90
2022-10-13T13:44:53.270Z,21.89
2022-10-13T13:47:23.711Z,21.61
2022-10-13T13:49:54.049Z,21.36
2022-10-13T13:52:25.237Z,21.77
2022-10-13T13:54:56.122Z,21.92
2022-10-13T13:57:23.882Z,22.04
2022-10-13T13:59:52.996Z,21.90
2022-10-13T14:02:22.656Z,21.80
2022-10-13T14:04:53.279Z,21.81
2022-10-13T14:07:21.602Z,21.67
2022-10-13T14:09:53.795Z,21.20
2022-10-13T14:12:23.513Z,21.52
2022-10-13T14:14:52.850Z,21.49
2022-10-13T14:17:22.882Z,21.52
2022-10-13T14:19:50.634Z,21.34
2022-10-13T14:22:18.471Z,21.39
2022-10-13T14:24:48.387Z,20.94
2022-10-13T14:27:16.139Z,19.64
2022-10-13T14:29:46.253Z,19.71
2022-10-13T14:32:15.593Z,19.19
2022-10-13T14:34:43.333Z,18.89
2022-10-13T14:37:11.221Z,19.00
2022-10-13T14:39:39.139Z,18.86
2022-10-13T14:42:07.428Z,18.82
2022-10-13T14:44:35.152Z,19.00
2022-10-13T14:47:02.875Z,19.53
2022-10-13T14:49:31.983Z,20.13
2022-10-13T14:51:59.656Z,19.78
2022-10-13T14:54:28.919Z,19.62
2022-10-13T14:56:56.605Z,19.64
2022-10-13T14:59:24.258Z,19.30
2022-10-13T15:01:51.938Z,19.16
2022-10-13T15:04:19.620Z,19.06
2022-10-13T15:11:07.196Z,19.08
2022-10-13T15:13:35.001Z,18.92
2022-10-13T15:16:04.676Z,19.13
2022-10-13T15:18:33.133Z,19.06
2022-10-13T15:21:01.017Z,19.21
2022-10-13T15:23:29.223Z,19.05
2022-10-13T15:25:58.632Z,19.20
2022-10-13T15:28:29.745Z,19.28
2022-10-13T15:30:57.590Z,18.93
2022-10-13T15:33:25.338Z,19.40
2022-10-13T15:35:54.627Z,19.77
2022-10-13T15:38:23.180Z,19.35
2022-10-13T15:40:50.907Z,19.68
2022-10-13T15:43:19.467Z,19.87
2022-10-13T15:45:56.371Z,19.92
2022-10-13T15:48:24.734Z,19.32
2022-10-13T15:50:52.575Z,19.59
2022-10-13T15:53:20.938Z,19.66
2022-10-13T15:55:49.678Z,19.46
2022-10-13T15:58:18.145Z,19.74
2022-10-13T16:00:46.462Z,19.53
2022-10-13T16:03:17.702Z,18.52
2022-10-13T16:05:46.779Z,19.28
2022-10-13T16:08:15.189Z,19.63
2022-10-13T16:10:44.233Z,19.49
2022-10-13T16:13:15.289Z,19.37
2022-10-13T16:15:43.056Z,18.78
2022-10-13T16:18:11.122Z,19.07
2022-10-13T16:20:45.233Z,18.12
2022-10-13T16:23:13.171Z,18.98
2022-10-13T16:25:41.020Z,19.33
2022-10-13T16:28:08.705Z,19.51
2022-10-13T16:30:37.334Z,19.57
2022-10-13T16:33:05.195Z,19.53
2022-10-13T16:35:34.205Z,19.54
2022-10-13T16:38:05.471Z,19.53
2022-10-13T16:40:38.014Z,18.18
2022-10-13T16:43:05.769Z,18.79
2022-10-13T16:45:55.262Z,19.15
2022-10-13T16:48:21.478Z,19.33
2022-10-13T16:50:49.167Z,19.33
2022-10-13T16:53:21.573Z,19.31
2022-10-13T16:55:49.336Z,19.32
2022-10-13T16:58:17.866Z,19.26
2022-10-13T17:00:45.662Z,19.05
2022-10-13T17:03:13.486Z,18.81
2022-10-13T17:05:41.334Z,19.02
2022-10-13T17:08:09.069Z,19.13
2022-10-13T17:10:38.208Z,18.74
2022-10-13T17:13:06.081Z,18.79
2022-10-13T17:15:33.883Z,18.38
2022-10-13T17:18:01.582Z,17.47
2022-10-13T17:20:29.325Z,17.28
2022-10-13T17:22:57.057Z,18.00
2022-10-13T17:25:25.047Z,18.49
2022-10-13T17:27:54.316Z,18.60
2022-10-13T17:30:22.275Z,17.53
2022-10-13T17:32:52.347Z,17.25
2022-10-13T17:35:23.287Z,17.38
2022-10-13T17:37:51.050Z,17.60
2022-10-13T17:40:19.260Z,17.75
2022-10-13T17:42:47.081Z,18.16
2022-10-13T17:45:18.545Z,18.38
2022-10-13T17:47:49.530Z,18.50
2022-10-13T17:50:17.811Z,18.53
2022-10-13T17:52:45.673Z,18.59
2022-10-13T17:55:13.451Z,18.61
2022-10-13T17:57:43.337Z,18.59
2022-10-13T18:00:12.479Z,18.62
2022-10-13T18:02:41.661Z,18.62
2022-10-13T18:05:09.772Z,18.65
2022-10-13T18:07:37.660Z,18.66
2022-10-13T18:10:06.711Z,18.63
2022-10-13T18:12:34.524Z,18.65
2022-10-13T18:15:02.308Z,18.68
2022-10-13T18:17:30.041Z,18.70
2022-10-13T18:19:59.863Z,18.65
2022-10-13T18:22:28.516Z,18.66
2022-10-13T18:24:57.401Z,18.66
2022-10-13T18:27:25.177Z,18.64
2022-10-13T18:29:52.937Z,18.61
2022-10-13T18:32:22.561Z,18.57
2022-10-13T18:34:50.273Z,18.56
2022-10-13T18:37:19.682Z,18.47
2022-10-13T18:39:49.512Z,18.30
2022-10-13T18:42:17.196Z,18.42
2022-10-13T18:44:44.899Z,18.44
2022-10-13T18:47:12.638Z,18.50
2022-10-13T18:49:40.307Z,18.53
2022-10-13T18:52:08.041Z,18.25
2022-10-13T18:54:41.139Z,17.76
2022-10-13T18:57:08.837Z,17.76
2022-10-13T18:59:38.613Z,17.32
2022-10-13T19:02:06.516Z,17.58
2022-10-13T19:04:36.232Z,17.08
2022-10-13T19:07:04.273Z,17.43
2022-10-13T19:09:32.087Z,17.90
2022-10-13T19:12:01.147Z,18.10
2022-10-13T19:14:31.207Z,18.22
2022-10-13T19:17:01.942Z,18.30
2022-10-13T19:19:30.647Z,18.30
2022-10-13T19:21:58.553Z,18.34
2022-10-13T19:24:26.292Z,18.29
2022-10-13T19:26:54.045Z,17.95
2022-10-13T19:29:23.157Z,18.09
2022-10-13T19:31:52.982Z,18.14
2022-10-13T19:34:20.922Z,18.05
2022-10-13T19:36:49.128Z,18.07
2022-10-13T19:39:19.718Z,18.07
2022-10-13T19:41:48.465Z,18.14
2022-10-13T19:44:17.522Z,18.08
2022-10-13T19:46:48.025Z,18.02
2022-10-13T19:49:21.141Z,18.06
2022-10-13T19:51:50.052Z,18.09
2022-10-13T19:54:19.442Z,18.02
2022-10-13T19:56:49.011Z,17.99
2022-10-13T19:59:17.623Z,17.96
2022-10-13T20:01:46.733Z,18.03
2022-10-13T20:04:15.845Z,18.01
2022-10-13T20:06:44.451Z,18.02
2022-10-13T20:09:12.241Z,18.10
2022-10-13T20:11:39.976Z,18.05
2022-10-13T20:14:07.774Z,18.01
2022-10-13T20:16:36.678Z,18.03
2022-10-13T20:19:05.790Z,18.04
2022-10-13T20:21:33.534Z,17.53
2022-10-13T20:24:01.322Z,17.78
2022-10-13T20:26:29.321Z,17.83
2022-10-13T20:28:58.131Z,17.31
2022-10-13T20:31:26.514Z,17.57
2022-10-13T20:33:55.751Z,17.54
2022-10-13T20:36:28.839Z,17.50
2022-10-13T20:38:56.928Z,17.53
2022-10-13T20:41:28.288Z,17.55
2022-10-13T20:43:57.810Z,17.60
2022-10-13T20:46:25.903Z,17.59
2022-10-13T20:49:11.811Z,17.63
2022-10-13T20:51:42.499Z,17.65
2022-10-13T20:54:14.083Z,16.78
2022-10-13T20:56:42.364Z,17.20
2022-10-13T20:59:14.526Z,17.42
2022-10-13T21:01:42.435Z,17.50
2022-10-13T21:04:11.167Z,17.52
2022-10-13T21:06:39.307Z,17.57
2022-10-13T21:09:08.775Z,17.55
2022-10-13T21:11:40.527Z,17.60
2022-10-13T21:14:09.595Z,17.58
2022-10-13T21:16:38.384Z,17.45
2022-10-13T21:19:09.901Z,17.45
2022-10-13T21:21:37.843Z,17.41
2022-10-13T21:24:08.624Z,17.40
2022-10-13T21:26:37.695Z,17.42
2022-10-13T21:29:13.325Z,17.47
2022-10-13T21:31:41.126Z,17.45
2022-10-13T21:34:08.946Z,16.95
2022-10-13T21:36:36.659Z,16.90
2022-10-13T21:39:06.447Z,16.88
2022-10-13T21:41:35.521Z,17.19
2022-10-13T21:44:03.559Z,17.24
2022-10-13T21:46:34.706Z,17.24
2022-10-13T21:49:04.443Z,17.08
2022-10-13T21:51:33.437Z,17.16
2022-10-13T21:54:03.693Z,17.09
2022-10-13T21:56:32.597Z,17.16
2022-10-13T21:59:02.286Z,17.05
2022-10-13T22:01:30.526Z,17.14
2022-10-13T22:04:01.355Z,17.07
2022-10-13T22:06:31.647Z,17.24
2022-10-13T22:09:03.951Z,17.23
2022-10-13T22:11:34.405Z,17.05
2022-10-13T22:14:08.678Z,16.98
2022-10-13T22:16:40.671Z,17.18
2022-10-13T22:19:08.784Z,17.17
2022-10-13T22:21:40.091Z,17.30
2022-10-13T22:24:10.520Z,17.33
2022-10-13T22:26:41.168Z,17.28
2022-10-13T22:29:12.940Z,17.24
2022-10-13T22:31:41.480Z,16.97
2022-10-13T22:34:12.954Z,17.08
2022-10-13T22:36:44.738Z,17.27
2022-10-13T22:39:13.213Z,17.17
2022-10-13T22:41:41.404Z,17.13
2022-10-13T22:44:10.528Z,16.43
2022-10-13T22:46:39.014Z,16.57
2022-10-13T22:49:08.113Z,16.08
2022-10-13T22:51:37.604Z,16.29
2022-10-13T22:54:07.528Z,16.25
2022-10-13T22:56:36.148Z,16.13
2022-10-13T22:59:07.317Z,16.09
2022-10-13T23:01:38.815Z,16.05
2022-10-13T23:04:06.887Z,16.36
2022-10-13T23:06:36.055Z,16.38
2022-10-13T23:09:08.129Z,16.45
2022-10-13T23:11:36.692Z,16.71
2022-10-13T23:14:07.091Z,16.89
2022-10-13T23:16:35.241Z,16.99
2022-10-13T23:19:04.623Z,17.02
2022-10-13T23:21:32.872Z,17.08
2022-10-13T23:24:02.768Z,17.02
2022-10-13T23:26:31.503Z,17.08
2022-10-13T23:29:00.028Z,17.04
2022-10-13T23:31:28.670Z,17.03
2022-10-13T23:33:56.749Z,17.01
2022-10-13T23:36:28.269Z,17.07
2022-10-13T23:38:58.118Z,17.10
2022-10-13T23:41:26.232Z,17.07
2022-10-13T23:43:56.244Z,17.08
2022-10-13T23:46:24.161Z,17.09
2022-10-13T23:48:52.255Z,16.69
2022-10-13T23:51:21.920Z,16.61
2022-10-13T23:53:51.731Z,15.71
2022-10-13T23:56:20.404Z,15.71
2022-10-13T23:58:48.527Z,15.79
